createdAt,value
2019-02-21T00:00:06.173Z,93.61
2019-02-21T00:02:34.882Z,93.75
2019-02-21T00:05:04.099Z,92.82
2019-02-21T00:07:32.675Z,94.97
2019-02-21T00:10:01.273Z,94.53
2019-02-21T00:12:29.953Z,94.96
2019-02-21T00:14:58.895Z,97.37
2019-02-21T00:17:27.517Z,99.60
2019-02-21T00:19:56.283Z,100.00
2019-02-21T00:22:24.872Z,100.00
2019-02-21T00:24:54.432Z,100.00
2019-02-21T00:27:23.089Z,100.00
2019-02-21T00:29:51.672Z,100.00
2019-02-21T00:32:20.265Z,100.00
2019-02-21T00:34:49.185Z,100.00
2019-02-21T00:37:17.862Z,100.00
2019-02-21T00:39:46.408Z,100.00
2019-02-21T00:42:15.670Z,100.00
2019-02-21T00:44:44.180Z,99.81
2019-02-21T00:47:13.138Z,100.00
2019-02-21T00:49:41.767Z,100.00
2019-02-21T00:52:10.436Z,100.00
2019-02-21T00:54:39.128Z,100.00
2019-02-21T00:57:07.808Z,100.00
2019-02-21T00:59:36.406Z,100.00
2019-02-21T01:02:04.989Z,100.00
2019-02-21T01:04:33.596Z,100.00
2019-02-21T01:07:02.235Z,100.00
2019-02-21T01:09:30.848Z,100.00
2019-02-21T01:11:59.508Z,100.00
2019-02-21T01:14:28.110Z,100.00
2019-02-21T01:16:56.735Z,100.00
2019-02-21T01:19:25.262Z,100.00
2019-02-21T01:21:53.871Z,100.00
2019-02-21T01:24:22.451Z,100.00
2019-02-21T01:26:51.355Z,100.00
2019-02-21T01:29:19.900Z,99.03
2019-02-21T01:31:48.614Z,98.70
2019-02-21T01:34:17.436Z,97.95
2019-02-21T01:36:45.981Z,97.51
2019-02-21T01:39:14.538Z,98.05
2019-02-21T01:41:43.165Z,97.54
2019-02-21T01:44:12.025Z,97.17
2019-02-21T01:46:40.695Z,97.44
2019-02-21T01:49:09.279Z,100.00
2019-02-21T01:51:37.886Z,98.78
2019-02-21T01:54:06.821Z,98.73
2019-02-21T01:56:35.378Z,97.91
2019-02-21T01:59:03.923Z,100.00
2019-02-21T02:01:32.536Z,100.00
2019-02-21T02:04:01.158Z,100.00
2019-02-21T02:06:29.710Z,98.01
2019-02-21T02:08:58.257Z,99.45
2019-02-21T02:11:26.828Z,100.00
2019-02-21T02:13:55.423Z,98.37
2019-02-21T02:16:24.066Z,96.07
2019-02-21T02:18:52.685Z,95.92
2019-02-21T02:21:21.300Z,96.09
2019-02-21T02:23:49.880Z,95.48
2019-02-21T02:26:18.767Z,96.48
2019-02-21T02:28:47.339Z,97.96
2019-02-21T02:31:22.719Z,97.88
2019-02-21T02:33:46.136Z,97.44
2019-02-21T02:36:14.737Z,96.81
2019-02-21T02:38:43.371Z,97.50
2019-02-21T02:41:12.683Z,96.99
2019-02-21T02:43:41.248Z,96.89
2019-02-21T02:46:09.841Z,96.87
2019-02-21T02:48:38.488Z,97.27
2019-02-21T02:51:07.429Z,97.49
2019-02-21T02:53:36.072Z,97.29
2019-02-21T02:56:04.655Z,97.23
2019-02-21T02:58:33.614Z,98.17
2019-02-21T03:01:02.579Z,97.38
2019-02-21T03:03:31.297Z,100.00
2019-02-21T03:05:59.904Z,100.00
2019-02-21T03:08:28.574Z,100.00
2019-02-21T03:10:57.159Z,100.00
2019-02-21T03:13:25.835Z,100.00
2019-02-21T03:15:54.723Z,100.00
2019-02-21T03:18:23.305Z,100.00
2019-02-21T03:20:51.917Z,100.00
2019-02-21T03:23:20.575Z,100.00
2019-02-21T03:25:49.185Z,100.00
2019-02-21T03:28:17.914Z,100.00
2019-02-21T03:30:46.468Z,100.00
2019-02-21T03:33:15.113Z,99.45
2019-02-21T03:35:43.716Z,98.43
2019-02-21T03:38:12.514Z,98.77
2019-02-21T03:40:41.037Z,98.26
2019-02-21T03:43:09.649Z,97.99
2019-02-21T03:45:38.257Z,98.26
2019-02-21T03:48:06.847Z,98.17
2019-02-21T03:50:35.418Z,97.56
2019-02-21T03:53:04.399Z,97.94
2019-02-21T03:55:32.995Z,97.97
2019-02-21T03:58:01.609Z,98.02
2019-02-21T04:00:30.269Z,97.42
2019-02-21T04:02:58.872Z,97.99
2019-02-21T04:05:27.576Z,97.63
2019-02-21T04:07:56.234Z,96.78
2019-02-21T04:10:24.803Z,95.51
2019-02-21T04:12:53.371Z,96.04
2019-02-21T04:15:22.037Z,96.99
2019-02-21T04:17:50.637Z,97.21
2019-02-21T04:20:19.267Z,98.30
2019-02-21T04:22:47.802Z,96.88
2019-02-21T04:25:16.332Z,97.94
2019-02-21T04:27:44.969Z,98.17
2019-02-21T04:30:13.579Z,98.10
2019-02-21T04:32:42.346Z,98.53
2019-02-21T04:35:10.968Z,98.02
2019-02-21T04:37:39.608Z,98.24
2019-02-21T04:40:08.290Z,98.09
2019-02-21T04:42:37.283Z,98.95
2019-02-21T04:45:06.749Z,99.38
2019-02-21T04:47:35.353Z,98.73
2019-02-21T04:50:04.721Z,98.24
2019-02-21T04:52:33.253Z,98.72
2019-02-21T04:55:01.857Z,99.00
2019-02-21T04:57:30.433Z,99.11
2019-02-21T04:59:58.982Z,99.38
2019-02-21T05:02:29.546Z,100.00
2019-02-21T05:04:57.940Z,100.00
2019-02-21T05:07:26.476Z,100.00
2019-02-21T05:09:58.308Z,99.02
2019-02-21T05:12:25.467Z,100.00
2019-02-21T05:14:55.076Z,100.00
2019-02-21T05:17:23.731Z,100.00
2019-02-21T05:19:52.408Z,100.00
2019-02-21T05:22:21.003Z,100.00
2019-02-21T05:24:49.577Z,100.00
2019-02-21T05:27:19.829Z,100.00
2019-02-21T05:29:48.491Z,100.00
2019-02-21T05:32:40.478Z,100.00
2019-02-21T05:35:08.205Z,100.00
2019-02-21T05:37:54.554Z,100.00
2019-02-21T05:40:41.930Z,100.00
2019-02-21T05:43:11.442Z,100.00
2019-02-21T05:45:57.578Z,100.00
2019-02-21T05:48:27.805Z,100.00
2019-02-21T05:51:14.560Z,100.00
2019-02-21T05:53:44.765Z,100.00
2019-02-21T05:56:14.970Z,100.00
2019-02-21T05:58:48.016Z,100.00
2019-02-21T06:01:18.310Z,100.00
2019-02-21T06:03:51.113Z,100.00
2019-02-21T06:06:24.141Z,100.00
2019-02-21T06:08:57.221Z,100.00
2019-02-21T06:11:27.463Z,100.00
2019-02-21T06:14:13.804Z,100.00
2019-02-21T06:17:00.758Z,100.00
2019-02-21T06:19:39.937Z,100.00
2019-02-21T06:22:26.311Z,100.00
2019-02-21T06:24:58.964Z,100.00
2019-02-21T06:27:29.320Z,100.00
2019-02-21T06:30:02.503Z,100.00
2019-02-21T06:32:31.077Z,100.00
2019-02-21T06:35:02.435Z,100.00
2019-02-21T06:37:30.005Z,100.00
2019-02-21T06:39:58.599Z,100.00
2019-02-21T06:42:27.147Z,100.00
2019-02-21T06:44:55.754Z,100.00
2019-02-21T06:47:24.560Z,100.00
2019-02-21T06:49:53.105Z,100.00
2019-02-21T06:52:21.715Z,100.00
2019-02-21T06:54:50.268Z,100.00
2019-02-21T06:57:19.049Z,100.00
2019-02-21T06:59:47.648Z,100.00
2019-02-21T07:02:16.302Z,100.00
2019-02-21T07:04:44.932Z,100.00
2019-02-21T07:07:13.522Z,100.00
2019-02-21T07:09:42.079Z,100.00
2019-02-21T07:12:10.793Z,100.00
2019-02-21T07:14:39.458Z,100.00
2019-02-21T07:17:08.647Z,100.00
2019-02-21T07:19:37.458Z,100.00
2019-02-21T07:22:06.382Z,100.00
2019-02-21T07:24:38.334Z,100.00
2019-02-21T07:27:06.088Z,100.00
2019-02-21T07:29:34.668Z,100.00
2019-02-21T07:32:03.230Z,100.00
2019-02-21T07:34:31.842Z,100.00
2019-02-21T07:37:00.458Z,100.00
2019-02-21T07:39:36.138Z,100.00
2019-02-21T07:41:59.379Z,100.00
2019-02-21T07:44:28.071Z,100.00
2019-02-21T07:46:56.645Z,100.00
2019-02-21T07:49:25.830Z,100.00
2019-02-21T07:51:54.471Z,100.00
2019-02-21T07:54:23.144Z,100.00
2019-02-21T07:56:51.672Z,100.00
2019-02-21T07:59:20.338Z,100.00
2019-02-21T08:01:48.908Z,100.00
2019-02-21T08:04:18.548Z,100.00
2019-02-21T08:06:47.232Z,100.00
2019-02-21T08:09:15.874Z,100.00
2019-02-21T08:11:44.535Z,99.61
2019-02-21T08:14:15.947Z,99.91
2019-02-21T08:16:43.605Z,100.00
2019-02-21T08:19:12.264Z,100.00
2019-02-21T08:21:43.518Z,100.00
2019-02-21T08:24:12.017Z,100.00
2019-02-21T08:26:40.569Z,100.00
2019-02-21T08:29:09.317Z,100.00
2019-02-21T08:31:37.938Z,100.00
2019-02-21T08:34:08.284Z,100.00
2019-02-21T08:36:36.862Z,100.00
2019-02-21T08:39:07.476Z,100.00
2019-02-21T08:41:36.113Z,100.00
2019-02-21T08:44:06.666Z,100.00
2019-02-21T08:46:35.672Z,100.00
2019-02-21T08:49:06.381Z,100.00
2019-02-21T08:51:35.134Z,100.00
2019-02-21T08:54:06.187Z,100.00
2019-02-21T08:56:34.987Z,100.00
2019-02-21T08:59:03.517Z,100.00
2019-02-21T09:01:32.147Z,100.00
2019-02-21T09:04:09.923Z,100.00
2019-02-21T09:06:30.952Z,100.00
2019-02-21T09:09:01.773Z,100.00
2019-02-21T09:11:30.445Z,100.00
2019-02-21T09:13:59.575Z,100.00
2019-02-21T09:16:28.221Z,100.00
2019-02-21T09:18:56.886Z,100.00
2019-02-21T09:21:25.491Z,100.00
2019-02-21T09:23:56.595Z,100.00
2019-02-21T09:26:24.379Z,100.00
2019-02-21T09:28:53.337Z,100.00
2019-02-21T09:31:22.013Z,100.00
2019-02-21T09:33:53.743Z,100.00
2019-02-21T09:36:22.807Z,100.00
2019-02-21T09:38:51.389Z,100.00
2019-02-21T09:41:19.997Z,100.00
2019-02-21T09:43:51.315Z,100.00
2019-02-21T09:46:19.950Z,100.00
2019-02-21T09:48:48.643Z,100.00
2019-02-21T09:51:19.283Z,100.00
2019-02-21T09:53:47.881Z,100.00
2019-02-21T09:56:16.539Z,100.00
2019-02-21T09:58:45.942Z,100.00
2019-02-21T10:01:14.898Z,100.00
2019-02-21T10:03:44.304Z,100.00
2019-02-21T10:06:13.272Z,100.00
2019-02-21T10:08:41.975Z,100.00
2019-02-21T10:11:11.529Z,100.00
2019-02-21T10:13:40.291Z,100.00
2019-02-21T10:16:08.977Z,100.00
2019-02-21T10:18:37.562Z,100.00
2019-02-21T10:21:06.727Z,100.00
2019-02-21T10:23:35.367Z,100.00
2019-02-21T10:26:04.095Z,100.00
2019-02-21T10:28:32.670Z,100.00
2019-02-21T10:31:01.359Z,100.00
2019-02-21T10:33:29.975Z,100.00
2019-02-21T10:36:00.482Z,100.00
2019-02-21T10:38:28.985Z,100.00
2019-02-21T10:40:58.053Z,100.00
2019-02-21T10:43:26.658Z,100.00
2019-02-21T10:45:55.336Z,100.00
2019-02-21T10:48:23.944Z,100.00
2019-02-21T10:50:52.671Z,99.60
2019-02-21T10:53:21.332Z,97.64
2019-02-21T10:55:49.974Z,95.73
2019-02-21T10:58:19.275Z,94.25
2019-02-21T11:00:48.015Z,92.01
2019-02-21T11:03:16.542Z,92.01
2019-02-21T11:05:45.174Z,91.48
2019-02-21T11:08:13.837Z,90.08
2019-02-21T11:10:42.485Z,87.61
2019-02-21T11:13:11.437Z,83.63
2019-02-21T11:15:42.016Z,82.20
2019-02-21T11:18:10.585Z,81.38
2019-02-21T11:20:40.266Z,79.38
2019-02-21T11:23:08.894Z,79.58
2019-02-21T11:25:37.521Z,82.04
2019-02-21T11:28:06.117Z,80.56
2019-02-21T11:30:34.834Z,77.18
2019-02-21T11:33:03.484Z,82.79
2019-02-21T11:35:32.301Z,86.26
2019-02-21T11:38:00.862Z,86.64
2019-02-21T11:40:29.602Z,84.44
2019-02-21T11:42:59.261Z,84.26
2019-02-21T11:45:28.059Z,84.04
2019-02-21T11:47:56.723Z,86.20
2019-02-21T11:50:25.441Z,82.05
2019-02-21T11:52:54.127Z,83.27
2019-02-21T11:55:25.030Z,83.03
2019-02-21T11:57:53.614Z,83.38
2019-02-21T12:00:28.233Z,82.73
2019-02-21T12:02:56.919Z,83.42
2019-02-21T12:05:31.385Z,81.80
2019-02-21T12:07:55.819Z,77.65
2019-02-21T12:10:24.366Z,71.87
2019-02-21T12:12:53.040Z,66.88
2019-02-21T12:15:22.730Z,70.67
2019-02-21T12:17:51.384Z,77.22
2019-02-21T12:20:20.790Z,77.32
2019-02-21T12:22:50.514Z,79.54
2019-02-21T12:25:21.481Z,78.74
2019-02-21T12:27:50.184Z,79.96
2019-02-21T12:30:19.797Z,79.38
2019-02-21T12:32:48.815Z,80.99
2019-02-21T12:35:28.712Z,80.13
2019-02-21T12:37:47.859Z,80.74
2019-02-21T12:40:22.265Z,81.24
2019-02-21T12:42:51.537Z,80.54
2019-02-21T12:45:24.661Z,81.40
2019-02-21T12:47:54.311Z,82.15
2019-02-21T12:50:23.305Z,82.21
2019-02-21T12:52:52.294Z,82.27
2019-02-21T12:55:28.022Z,85.04
2019-02-21T12:57:51.566Z,82.86
2019-02-21T13:00:22.216Z,84.15
2019-02-21T13:02:50.971Z,84.29
2019-02-21T13:05:20.087Z,84.34
2019-02-21T13:07:48.841Z,84.94
2019-02-21T13:10:19.424Z,84.64
2019-02-21T13:12:47.995Z,84.79
2019-02-21T13:15:17.847Z,85.52
2019-02-21T13:17:46.465Z,84.69
2019-02-21T13:20:15.800Z,85.01
2019-02-21T13:22:44.508Z,85.02
2019-02-21T13:25:17.928Z,84.46
2019-02-21T13:27:46.896Z,85.61
2019-02-21T13:30:18.852Z,84.77
2019-02-21T13:32:47.684Z,83.57
2019-02-21T13:35:16.633Z,83.63
2019-02-21T13:37:45.662Z,84.19
2019-02-21T13:40:17.226Z,82.72
2019-02-21T13:42:46.204Z,82.06
2019-02-21T13:45:17.982Z,82.76
2019-02-21T13:47:46.957Z,83.22
2019-02-21T13:50:20.335Z,82.74
2019-02-21T13:52:48.927Z,81.66
2019-02-21T13:55:17.495Z,82.07
2019-02-21T13:57:46.148Z,82.58
2019-02-21T14:00:22.033Z,83.21
2019-02-21T14:02:50.704Z,82.67
2019-02-21T14:05:19.471Z,82.83
2019-02-21T14:07:48.119Z,84.12
2019-02-21T14:10:17.059Z,84.67
2019-02-21T14:12:45.899Z,85.54
2019-02-21T14:15:20.474Z,86.45
2019-02-21T14:17:49.204Z,88.18
2019-02-21T14:20:17.883Z,87.71
2019-02-21T14:22:47.499Z,89.61
2019-02-21T14:25:16.219Z,88.09
2019-02-21T14:27:44.910Z,91.44
2019-02-21T14:30:18.461Z,90.75
2019-02-21T14:32:47.129Z,90.93
2019-02-21T14:35:16.765Z,91.12
2019-02-21T14:37:45.476Z,92.71
2019-02-21T14:40:15.301Z,95.15
2019-02-21T14:42:43.881Z,95.65
2019-02-21T14:45:18.271Z,98.16
2019-02-21T14:47:46.926Z,96.17
2019-02-21T14:50:15.717Z,97.71
2019-02-21T14:52:44.363Z,100.00
2019-02-21T14:55:17.226Z,100.00
2019-02-21T14:57:45.879Z,100.00
2019-02-21T15:00:28.769Z,100.00
2019-02-21T15:02:58.516Z,100.00
2019-02-21T15:05:27.051Z,100.00
2019-02-21T15:07:55.601Z,100.00
2019-02-21T15:10:25.432Z,100.00
2019-02-21T15:12:54.386Z,99.42
2019-02-21T15:15:26.944Z,100.00
2019-02-21T15:18:06.589Z,100.00
2019-02-21T15:20:36.389Z,99.96
2019-02-21T15:22:56.222Z,99.28
2019-02-21T15:25:24.777Z,99.42
2019-02-21T15:27:53.570Z,98.75
2019-02-21T15:30:24.021Z,99.01
2019-02-21T15:32:52.610Z,99.39
2019-02-21T15:35:21.172Z,100.00
2019-02-21T15:37:49.786Z,99.67
2019-02-21T15:40:18.423Z,100.00
2019-02-21T15:42:47.085Z,100.00
2019-02-21T15:45:24.425Z,100.00
2019-02-21T15:47:53.504Z,100.00
2019-02-21T15:50:22.188Z,100.00
2019-02-21T15:52:52.667Z,100.00
2019-02-21T15:55:22.142Z,100.00
2019-02-21T15:58:03.356Z,100.00
2019-02-21T16:00:25.163Z,100.00
2019-02-21T16:02:53.862Z,100.00
2019-02-21T16:05:22.550Z,100.00
2019-02-21T16:07:51.526Z,100.00
2019-02-21T16:10:25.088Z,100.00
2019-02-21T16:12:54.987Z,100.00
2019-02-21T16:15:23.775Z,100.00
2019-02-21T16:17:52.576Z,100.00
2019-02-21T16:20:21.652Z,100.00
2019-02-21T16:22:50.292Z,100.00
2019-02-21T16:25:28.208Z,100.00
2019-02-21T16:27:56.820Z,100.00
2019-02-21T16:30:25.384Z,100.00
2019-02-21T16:32:54.065Z,100.00
2019-02-21T16:35:22.775Z,100.00
2019-02-21T16:37:51.503Z,100.00
2019-02-21T16:40:20.586Z,100.00
2019-02-21T16:42:49.198Z,100.00
2019-02-21T16:45:20.023Z,100.00
2019-02-21T16:47:48.679Z,100.00
2019-02-21T16:50:28.818Z,100.00
2019-02-21T16:52:47.755Z,100.00
2019-02-21T16:55:21.325Z,100.00
2019-02-21T16:57:50.310Z,100.00
2019-02-21T17:00:20.618Z,100.00
2019-02-21T17:02:49.236Z,100.00
2019-02-21T17:05:17.826Z,100.00
2019-02-21T17:07:47.522Z,100.00
2019-02-21T17:10:17.031Z,100.00
2019-02-21T17:12:45.726Z,100.00
2019-02-21T17:15:16.110Z,100.00
2019-02-21T17:17:44.685Z,100.00
2019-02-21T17:20:19.063Z,100.00
2019-02-21T17:22:47.692Z,100.00
2019-02-21T17:25:16.711Z,100.00
2019-02-21T17:27:45.986Z,100.00
2019-02-21T17:30:19.092Z,100.00
2019-02-21T17:32:47.765Z,100.00
2019-02-21T17:35:16.523Z,100.00
2019-02-21T17:37:45.229Z,100.00
2019-02-21T17:40:16.507Z,100.00
2019-02-21T17:42:45.203Z,100.00
2019-02-21T17:45:16.810Z,100.00
2019-02-21T17:47:45.838Z,100.00
2019-02-21T17:50:16.733Z,100.00
2019-02-21T17:52:45.487Z,100.00
2019-02-21T17:55:15.234Z,100.00
2019-02-21T17:57:44.178Z,100.00
2019-02-21T18:00:22.330Z,100.00
2019-02-21T18:02:51.124Z,100.00
2019-02-21T18:05:19.928Z,100.00
2019-02-21T18:07:48.654Z,100.00
2019-02-21T18:10:18.543Z,100.00
2019-02-21T18:12:47.305Z,100.00
2019-02-21T18:15:17.242Z,100.00
2019-02-21T18:17:45.898Z,100.00
2019-02-21T18:20:15.564Z,100.00
2019-02-21T18:22:44.791Z,100.00
2019-02-21T18:25:16.877Z,100.00
2019-02-21T18:27:45.474Z,100.00
2019-02-21T18:30:16.681Z,100.00
2019-02-21T18:32:45.243Z,100.00
2019-02-21T18:35:13.974Z,100.00
2019-02-21T18:37:47.436Z,100.00
2019-02-21T18:40:21.955Z,100.00
2019-02-21T18:42:50.688Z,100.00
2019-02-21T18:45:19.400Z,100.00
2019-02-21T18:47:48.175Z,100.00
2019-02-21T18:50:17.169Z,100.00
2019-02-21T18:52:45.835Z,100.00
2019-02-21T18:55:14.576Z,100.00
2019-02-21T18:57:44.779Z,100.00
2019-02-21T19:00:16.939Z,100.00
2019-02-21T19:02:46.426Z,100.00
2019-02-21T19:05:15.084Z,100.00
2019-02-21T19:07:43.818Z,100.00
2019-02-21T19:10:17.625Z,100.00
2019-02-21T19:12:46.447Z,100.00
2019-02-21T19:15:17.073Z,100.00
2019-02-21T19:17:46.055Z,100.00
2019-02-21T19:20:16.500Z,100.00
2019-02-21T19:22:45.289Z,100.00
2019-02-21T19:25:14.816Z,100.00
2019-02-21T19:27:43.571Z,100.00
2019-02-21T19:30:15.560Z,100.00
2019-02-21T19:32:45.531Z,100.00
2019-02-21T19:35:14.186Z,100.00
2019-02-21T19:37:42.942Z,100.00
2019-02-21T19:40:11.855Z,100.00
2019-02-21T19:42:40.612Z,100.00
2019-02-21T19:45:10.085Z,100.00
2019-02-21T19:47:40.419Z,100.00
2019-02-21T19:50:10.112Z,100.00
2019-02-21T19:52:39.034Z,100.00
2019-02-21T19:55:11.356Z,100.00
2019-02-21T19:57:40.064Z,100.00
2019-02-21T20:00:15.596Z,100.00
2019-02-21T20:02:44.190Z,100.00
2019-02-21T20:05:12.796Z,100.00
2019-02-21T20:07:42.548Z,100.00
2019-02-21T20:10:12.164Z,100.00
2019-02-21T20:12:40.851Z,100.00
2019-02-21T20:15:11.649Z,100.00
2019-02-21T20:17:40.364Z,100.00
2019-02-21T20:20:23.665Z,100.00
2019-02-21T20:22:53.008Z,100.00
2019-02-21T20:25:21.627Z,100.00
2019-02-21T20:27:50.306Z,100.00
2019-02-21T20:30:19.736Z,100.00
2019-02-21T20:32:48.416Z,100.00
2019-02-21T20:35:16.998Z,100.00
2019-02-21T20:37:45.627Z,100.00
2019-02-21T20:40:14.464Z,100.00
2019-02-21T20:42:43.229Z,100.00
2019-02-21T20:45:14.136Z,100.00
2019-02-21T20:47:42.926Z,100.00
2019-02-21T20:50:12.756Z,100.00
2019-02-21T20:52:41.791Z,100.00
2019-02-21T20:55:11.637Z,100.00
2019-02-21T20:57:40.324Z,100.00
2019-02-21T21:00:17.215Z,100.00
2019-02-21T21:02:45.787Z,100.00
2019-02-21T21:05:14.827Z,100.00
2019-02-21T21:07:43.583Z,100.00
2019-02-21T21:10:14.421Z,100.00
2019-02-21T21:12:43.119Z,100.00
2019-02-21T21:15:13.519Z,100.00
2019-02-21T21:17:42.179Z,100.00
2019-02-21T21:20:17.093Z,100.00
2019-02-21T21:22:43.357Z,100.00
2019-02-21T21:25:19.451Z,100.00
2019-02-21T21:27:48.182Z,100.00
2019-02-21T21:30:18.015Z,100.00
2019-02-21T21:32:46.760Z,100.00
2019-02-21T21:35:15.303Z,100.00
2019-02-21T21:37:43.964Z,100.00
2019-02-21T21:40:19.404Z,100.00
2019-02-21T21:42:48.152Z,100.00
2019-02-21T21:45:18.941Z,100.00
2019-02-21T21:47:47.593Z,100.00
2019-02-21T21:50:19.932Z,100.00
2019-02-21T21:52:48.583Z,100.00
2019-02-21T21:55:17.326Z,100.00
2019-02-21T21:57:45.907Z,100.00
2019-02-21T22:00:23.236Z,100.00
2019-02-21T22:02:52.881Z,100.00
2019-02-21T22:05:21.534Z,100.00
2019-02-21T22:07:50.230Z,100.00
2019-02-21T22:10:18.907Z,100.00
2019-02-21T22:12:47.703Z,100.00
2019-02-21T22:15:20.725Z,100.00
2019-02-21T22:17:49.389Z,100.00
2019-02-21T22:20:18.119Z,100.00
2019-02-21T22:22:46.678Z,100.00
2019-02-21T22:25:15.272Z,100.00
2019-02-21T22:27:47.110Z,100.00
2019-02-21T22:30:19.798Z,100.00
2019-02-21T22:32:48.434Z,100.00
2019-02-21T22:35:16.973Z,100.00
2019-02-21T22:37:45.672Z,100.00
2019-02-21T22:40:17.164Z,100.00
2019-02-21T22:42:45.745Z,100.00
2019-02-21T22:45:14.361Z,100.00
2019-02-21T22:47:43.022Z,100.00
2019-02-21T22:50:16.896Z,100.00
2019-02-21T22:52:45.535Z,100.00
2019-02-21T22:55:14.210Z,100.00
2019-02-21T22:57:42.832Z,100.00
2019-02-21T23:00:39.927Z,100.00
2019-02-21T23:03:10.897Z,100.00
2019-02-21T23:05:59.094Z,100.00
2019-02-21T23:08:42.902Z,100.00
2019-02-21T23:11:11.531Z,100.00
2019-02-21T23:13:40.086Z,100.00
2019-02-21T23:16:08.741Z,100.00
2019-02-21T23:18:37.275Z,100.00
2019-02-21T23:21:05.919Z,100.00
2019-02-21T23:23:34.457Z,100.00
2019-02-21T23:26:03.008Z,100.00
2019-02-21T23:28:31.534Z,100.00
2019-02-21T23:31:00.173Z,100.00
2019-02-21T23:33:30.125Z,100.00
2019-02-21T23:35:58.724Z,100.00
2019-02-21T23:38:27.242Z,100.00
2019-02-21T23:40:55.800Z,100.00
2019-02-21T23:43:24.336Z,100.00
2019-02-21T23:45:52.937Z,100.00
2019-02-21T23:48:21.492Z,100.00
2019-02-21T23:50:50.104Z,100.00
2019-02-21T23:53:18.638Z,100.00
2019-02-21T23:55:47.224Z,100.00
2019-02-21T23:58:15.841Z,100.00
